Impacts METAR Board INFO
IDs:

KSLC - Salt Lake City Intl, UT, US

Updated at: 0612 UTC 17 Dec 2017
Potential Impact None Slight Moderate High
Time16/18Z 16/19Z 16/20Z 16/21Z 16/22Z 16/23Z 17/00Z 17/01Z 17/02Z 17/03Z 17/04Z 17/05Z 17/06Z
VIS1 2 6 7 10 10 9 9 5 5 3 2.5 6
CIG7 6 38 42 43 38 35 20 7 20 13 18 40
CoverOVCOVCOVCOVCOVCOVCOVCOVCOVCOVCOVCOVCOVC
FltCatIFRIFRVFRVFRVFRVFRVFRMVFRIFRMVFRMVFRIFRVFR
WX-SN BR-SN BR-SN BR---------SN-SN BR-SN BR-SN BR-SN BR-SN BR
WDir330310310310310290310330330320310290300
WSpd9 9 13 9 8 8 11 8 8 7 8 9 5
WGst-- -- -- -- -- -- -- -- -- -- -- -- --
Raw hourly METARs
KSLC 161754Z 33009KT 1SM R16L/5000VP6000FT -SN BR BKN007 OVC011 01/M01 A2991 RMK AO2 TWR VIS 1 1/4 SLP138 P0001 60001 T00061006 10011 21011 53007
KSLC 161854Z 31009KT 2SM -SN BR OVC006 01/00 A2990 RMK AO2 SFC VIS 2 1/2 SLP133 P0001 T00110000
KSLC 162001Z 31013KT 6SM -SN BR SCT015 BKN038 OVC049 01/M01 A2991 RMK AO2 P0000 T00111006
KSLC 162054Z 31009KT 7SM FEW015 BKN042 OVC055 01/M01 A2991 RMK AO2 SNE10 SLP134 P0000 60001 T00111011 50002
KSLC 162154Z 31008KT 10SM SCT031 BKN043 OVC050 02/M01 A2992 RMK AO2 SLP139 T00171011
KSLC 162254Z 29008KT 10SM FEW025 OVC038 02/M01 A2993 RMK AO2 SLP143 SH VC SE T00171006
KSLC 162354Z 31011KT 9SM FEW025 OVC035 01/M02 A2996 RMK AO2 SLP153 SH VC SE 60001 T00061017 10022 20006 53015
KSLC 170054Z 33008KT 9SM -SN FEW009 BKN020 OVC034 01/M01 A2998 RMK AO2 SNB2357E41B50 SLP162 P0000 T00061011
KSLC 170154Z 33008KT 5SM -SN BR BKN007 BKN026 OVC036 00/M01 A2999 RMK AO2 SLP168 P0001 T00001011
KSLC 170254Z 32007KT 5SM -SN BR SCT006 OVC020 00/M01 A3001 RMK AO2 SLP175 P0001 60002 T00001011 53012
KSLC 170354Z 31008KT 3SM -SN BR SCT006 BKN013 OVC033 M01/M02 A3004 RMK AO2 SLP181 P0000 T10061017
KSLC 170501Z 29009KT 2 1/2SM -SN BR FEW006 SCT012 OVC018 M01/M02 A3006 RMK AO2 P0001 T10111017
KSLC 170554Z 30005KT 6SM -SN BR FEW018 SCT025 OVC040 M01/M02 A3008 RMK AO2 CIG 028 NW RNWY SLP196 P0001 60004 T10061017 10006 21011 51019